Time;durP1;ratioP1;P1;durP2;ratioP2;P2;SDS_P1;SDS_P2;PMS_P1;PMS_P2;Temp;Humidity;BMP_temperature;BMP_pressure;BME280_temperature;BME280_humidity;BME280_pressure;Samples;Min_cycle;Max_cycle;Signal;HPM_P1;HPM_P2
2024/01/07 00:09:32;;;;;;;2.07;1.37;;;;;;;;;;20975927;28;20602;-85
2024/01/07 00:19:35;;;;;;;2.53;1.43;;;;;;;;;;20937644;28;20752;-84
2024/01/07 00:29:37;;;;;;;1.87;1.07;;;;;;;;;;20904608;28;20655;-83
2024/01/07 00:39:42;;;;;;;2.07;1.20;;;;;;;;;;20888275;28;20271;-87
2024/01/07 00:49:43;;;;;;;2.10;1.10;;;;;;;;;;20931675;28;20251;-85
2024/01/07 00:59:45;;;;;;;1.27;0.80;;;;;;;;;;20909725;28;20241;-84
2024/01/07 01:09:51;;;;;;;1.50;0.97;;;;;;;;;;20945175;28;20295;-85
2024/01/07 01:19:52;;;;;;;2.27;1.20;;;;;;;;;;20881676;28;20214;-81
2024/01/07 01:29:54;;;;;;;2.47;1.40;;;;;;;;;;20904441;28;20247;-84
2024/01/07 01:39:56;;;;;;;3.33;1.53;;;;;;;;;;20925310;28;20267;-85
2024/01/07 01:49:58;;;;;;;2.90;1.47;;;;;;;;;;20873536;28;20252;-85
2024/01/07 02:00:03;;;;;;;2.57;1.20;;;5.30;99.90;;;;;;20918333;28;20246;-83
2024/01/07 02:10:08;;;;;;;1.60;0.97;;;;;;;;;;20947644;28;20566;-83
2024/01/07 02:20:10;;;;;;;1.67;1.20;;;5.30;99.90;;;;;;20969337;28;20252;-85
2024/01/07 02:30:12;;;;;;;1.77;0.93;;;;;;;;;;20967488;28;20275;-88
2024/01/07 02:40:14;;;;;;;2.37;1.33;;;;;;;;;;21024282;28;20217;-85
2024/01/07 02:50:16;;;;;;;2.27;1.20;;;;;;;;;;20956363;28;20711;-84
2024/01/07 03:00:18;;;;;;;4.13;1.27;;;;;;;;;;20986764;28;20212;-83
2024/01/07 03:10:20;;;;;;;2.93;1.30;;;;;;;;;;20975875;28;20739;-86
2024/01/07 03:20:22;;;;;;;2.40;1.20;;;;;;;;;;21029909;28;20213;-82
2024/01/07 03:30:24;;;;;;;3.43;1.50;;;;;;;;;;21003616;28;20221;-84
2024/01/07 03:40:26;;;;;;;2.43;1.33;;;;;;;;;;20958904;28;20213;-82
2024/01/07 03:50:27;;;;;;;2.27;0.97;;;;;;;;;;20962816;28;20233;-85
2024/01/07 04:00:29;;;;;;;2.50;1.50;;;;;;;;;;20975588;28;20247;-89
2024/01/07 04:10:31;;;;;;;2.07;1.50;;;;;;;;;;21003735;28;20217;-85
2024/01/07 04:20:33;;;;;;;1.73;1.00;;;;;;;;;;20979448;28;20224;-85
2024/01/07 04:30:35;;;;;;;2.40;1.30;;;;;;;;;;20990402;28;20284;-86
2024/01/07 04:40:36;;;;;;;2.13;1.30;;;;;;;;;;21010168;28;20278;-84
2024/01/07 04:50:40;;;;;;;3.73;1.17;;;;;;;;;;20989163;28;20286;-85
2024/01/07 05:00:42;;;;;;;1.57;0.93;;;;;;;;;;21002958;28;20217;-87
2024/01/07 05:10:44;;;;;;;1.63;1.03;;;;;;;;;;20987512;28;20563;-86
2024/01/07 05:20:46;;;;;;;1.77;1.10;;;;;;;;;;20985883;28;20267;-86
2024/01/07 05:30:48;;;;;;;2.63;1.17;;;;;;;;;;21007655;28;20221;-86
2024/01/07 05:40:50;;;;;;;1.80;0.90;;;;;;;;;;21061830;28;20213;-84
2024/01/07 05:50:52;;;;;;;2.00;1.10;;;;;;;;;;21018551;28;20255;-84
2024/01/07 06:00:53;;;;;;;1.93;0.97;;;;;;;;;;20982769;28;20228;-85
2024/01/07 06:10:55;;;;;;;1.73;0.93;;;;;;;;;;20958662;28;20784;-84
2024/01/07 06:20:57;;;;;;;1.70;1.00;;;;;;;;;;20975807;28;20217;-84
2024/01/07 06:30:58;;;;;;;1.50;0.90;;;;;;;;;;20952013;28;20606;-87
2024/01/07 06:41:03;;;;;;;2.10;1.20;;;;;;;;;;20968714;28;20735;-87
2024/01/07 06:51:05;;;;;;;1.70;1.10;;;;;;;;;;20955734;28;20607;-86
2024/01/07 07:01:07;;;;;;;1.40;0.73;;;;;;;;;;20993460;28;20221;-86
2024/01/07 07:11:09;;;;;;;1.93;1.10;;;;;;;;;;20980070;28;20278;-87
2024/01/07 07:21:10;;;;;;;1.77;0.90;;;;;;;;;;21030168;28;20361;-86
2024/01/07 07:31:13;;;;;;;2.00;0.90;;;;;;;;;;20971857;28;20225;-84
2024/01/07 07:41:15;;;;;;;2.17;1.17;;;;;;;;;;20992838;28;20350;-82
2024/01/07 07:51:17;;;;;;;1.23;0.60;;;;;;;;;;20981689;28;20229;-84
2024/01/07 08:01:18;;;;;;;2.20;1.30;;;;;;;;;;21044063;28;20213;-86
2024/01/07 08:11:20;;;;;;;2.63;1.53;;;;;;;;;;20993762;28;20286;-83
2024/01/07 08:21:22;;;;;;;1.87;1.33;;;;;;;;;;21026004;28;20562;-85
2024/01/07 08:31:24;;;;;;;3.60;1.57;;;;;;;;;;21045832;28;20205;-83
2024/01/07 08:41:26;;;;;;;2.20;1.30;;;;;;;;;;20985213;28;20209;-84
2024/01/07 08:51:29;;;;;;;2.50;1.40;;;;;;;;;;21008017;28;20232;-83
2024/01/07 09:01:30;;;;;;;2.90;1.70;;;;;;;;;;21038097;28;20263;-82
2024/01/07 09:11:33;;;;;;;2.97;1.47;;;;;;;;;;20952330;28;20225;-82
2024/01/07 09:21:35;;;;;;;2.27;1.40;;;;;;;;;;20930880;28;20716;-81
2024/01/07 09:31:37;;;;;;;2.67;1.70;;;;;;;;;;20883873;28;20585;-83
2024/01/07 09:41:39;;;;;;;2.43;1.47;;;;;;;;;;20877427;28;20364;-84
2024/01/07 09:51:41;;;;;;;2.10;1.30;;;;;;;;;;20893557;28;20226;-83
2024/01/07 10:01:43;;;;;;;2.17;1.27;;;;;;;;;;20888585;28;20573;-84
2024/01/07 10:11:45;;;;;;;2.40;1.43;;;;;;;;;;20979775;28;20225;-84
2024/01/07 10:21:47;;;;;;;1.80;1.03;;;;;;;;;;20970335;28;20205;-85
2024/01/07 10:31:49;;;;;;;3.67;1.73;;;5.10;99.90;;;;;;21001474;28;20228;-81
2024/01/07 10:41:58;;;;;;;2.70;1.53;;;;;;;;;;20999675;28;20205;-84
2024/01/07 10:52:06;;;;;;;2.07;1.03;;;;;;;;;;20953471;28;20228;-82
2024/01/07 11:02:08;;;;;;;2.10;1.10;;;;;;;;;;20983704;28;20243;-83
2024/01/07 11:12:11;;;;;;;2.23;1.27;;;;;;;;;;20961498;28;20271;-82
2024/01/07 11:22:27;;;;;;;2.00;1.37;;;5.10;99.90;;;;;;20976058;28;20216;-82
2024/01/07 11:32:29;;;;;;;2.20;1.27;;;;;;;;;;20969100;28;20377;-83
2024/01/07 11:42:32;;;;;;;2.63;1.30;;;;;;;;;;20982047;28;20220;-81
2024/01/07 11:52:36;;;;;;;2.30;1.23;;;;;;;;;;20943294;28;20270;-81
2024/01/07 12:02:38;;;;;;;1.37;0.90;;;;;;;;;;20925847;28;20274;-82
2024/01/07 12:12:40;;;;;;;1.83;1.03;;;;;;;;;;20997584;28;20224;-84
2024/01/07 12:22:42;;;;;;;2.03;1.43;;;;;;;;;;20966552;28;20237;-82
2024/01/07 12:32:45;;;;;;;1.57;1.03;;;;;;;;;;20975042;28;20210;-82
2024/01/07 12:42:47;;;;;;;2.43;1.33;;;;;;;;;;20992413;28;20222;-83
2024/01/07 12:52:49;;;;;;;1.40;0.97;;;;;;;;;;21024250;28;20201;-83
2024/01/07 13:02:52;;;;;;;2.50;1.23;;;;;;;;;;21011232;28;20273;-83
2024/01/07 13:12:54;;;;;;;1.80;1.00;;;;;;;;;;20919959;28;20234;-82
2024/01/07 13:22:56;;;;;;;1.87;1.00;;;;;;;;;;20933821;28;20214;-83
2024/01/07 13:32:58;;;;;;;2.17;1.20;;;;;;;;;;20888674;28;20240;-85
2024/01/07 13:42:59;;;;;;;3.17;1.43;;;;;;;;;;20933051;28;20226;-86
2024/01/07 13:53:02;;;;;;;2.87;1.67;;;4.30;99.90;;;;;;20978664;28;20589;-84
2024/01/07 14:03:04;;;;;;;2.40;1.50;;;;;;;;;;20925031;28;20775;-84
2024/01/07 14:13:06;;;;;;;3.43;1.70;;;;;;;;;;20995151;28;20236;-83
2024/01/07 14:23:09;;;;;;;3.13;1.90;;;;;;;;;;20970854;28;20233;-85
2024/01/07 14:33:12;;;;;;;1.93;1.23;;;;;;;;;;21034080;28;20283;-85
2024/01/07 14:43:13;;;;;;;1.60;1.10;;;;;;;;;;20978493;28;20287;-83
2024/01/07 14:53:15;;;;;;;3.57;1.77;;;;;;;;;;20970173;28;20702;-85
2024/01/07 15:03:17;;;;;;;1.63;1.13;;;;;;;;;;20943748;28;20217;-85
2024/01/07 15:13:19;;;;;;;1.73;1.13;;;;;;;;;;20883918;28;20205;-86
2024/01/07 15:23:21;;;;;;;1.70;0.87;;;;;;;;;;20934615;28;20230;-81
2024/01/07 15:33:23;;;;;;;1.87;1.27;;;;;;;;;;20926403;28;20264;-83
2024/01/07 15:43:24;;;;;;;1.87;1.30;;;;;;;;;;20872915;28;20691;-82
2024/01/07 15:53:31;;;;;;;1.90;1.00;;;;;;;;;;20904307;28;20561;-83
2024/01/07 16:03:34;;;;;;;3.73;1.07;;;;;;;;;;20909716;28;20217;-83
2024/01/07 16:13:36;;;;;;;1.63;1.00;;;;;;;;;;20952165;28;20267;-83
2024/01/07 16:23:37;;;;;;;1.50;1.10;;;;;;;;;;20986661;28;20259;-85
2024/01/07 16:33:39;;;;;;;1.43;0.70;;;;;;;;;;21001252;28;20235;-85
2024/01/07 16:43:41;;;;;;;0.47;0.33;;;;;;;;;;21014723;28;20747;-84
2024/01/07 16:53:43;;;;;;;2.17;1.17;;;;;;;;;;20996406;28;20221;-85
2024/01/07 17:03:44;;;;;;;0.70;0.67;;;;;;;;;;20991098;28;20213;-83
2024/01/07 17:13:46;;;;;;;0.53;0.43;;;;;;;;;;20912838;28;20897;-84
2024/01/07 17:23:51;;;;;;;3.50;0.50;;;;;;;;;;20911340;28;20226;-83
2024/01/07 17:33:53;;;;;;;0.50;0.43;;;;;;;;;;20923162;28;20226;-83
2024/01/07 17:43:54;;;;;;;0.50;0.40;;;;;;;;;;20904075;28;20222;-86
2024/01/07 17:53:56;;;;;;;0.93;0.60;;;;;;;;;;20917673;28;20226;-85
2024/01/07 18:03:57;;;;;;;0.87;0.60;;;;;;;;;;20917872;28;20646;-85
2024/01/07 18:13:59;;;;;;;0.30;0.30;;;;;;;;;;20984241;28;20289;-84
2024/01/07 18:24:01;;;;;;;0.80;0.50;;;;;;;;;;20955612;28;20233;-84
2024/01/07 18:34:03;;;;;;;0.77;0.40;;;;;;;;;;20976638;28;20209;-86
2024/01/07 18:44:05;;;;;;;0.30;0.30;;;1.90;99.90;;;;;;20983502;28;20205;-87
2024/01/07 18:54:07;;;;;;;0.60;0.43;;;;;;;;;;20962066;28;20262;-84
2024/01/07 19:04:09;;;;;;;0.30;0.20;;;;;;;;;;21012127;28;20243;-86
2024/01/07 19:14:11;;;;;;;0.50;0.40;;;;;;;;;;20939909;28;20263;-84
2024/01/07 19:24:13;;;;;;;0.40;0.40;;;;;;;;;;20967905;28;20289;-83
2024/01/07 19:34:14;;;;;;;0.20;0.20;;;;;;;;;;20992351;28;20213;-85
2024/01/07 19:44:17;;;;;;;0.30;0.30;;;;;;;;;;20966578;28;20628;-84
2024/01/07 19:54:20;;;;;;;0.30;0.30;;;;;;;;;;20990949;28;20266;-86
2024/01/07 20:04:23;;;;;;;0.87;0.40;;;;;;;;;;21025281;28;20247;-85
2024/01/07 20:14:25;;;;;;;0.33;0.30;;;;;;;;;;21021468;28;21600;-83
2024/01/07 20:24:27;;;;;;;0.33;0.30;;;;;;;;;;20993968;28;20224;-85
2024/01/07 20:34:28;;;;;;;1.40;0.50;;;;;;;;;;20944421;28;20214;-84
2024/01/07 21:07:19;;;;;;;0.90;0.50;;;;;;;;;;20914838;28;20249;-84
2024/01/07 21:17:21;;;;;;;0.70;0.53;;;;;;;;;;21105784;28;20669;-84
2024/01/07 21:27:23;;;;;;;0.43;0.40;;;;;;;;;;21122042;28;20219;-84
2024/01/07 21:37:24;;;;;;;1.57;0.90;;;;;;;;;;21115259;28;20212;-87
2024/01/07 21:47:27;;;;;;;0.90;0.50;;;;;;;;;;21159496;28;22091;-86
2024/01/07 21:57:28;;;;;;;0.60;0.43;;;;;;;;;;21150733;28;20219;-86
2024/01/07 22:07:30;;;;;;;0.50;0.40;;;;;;;;;;21152006;27;20307;-84
2024/01/07 22:17:32;;;;;;;0.30;0.30;;;;;;;;;;21070952;28;20226;-84
2024/01/07 22:27:34;;;;;;;0.40;0.37;;;;;;;;;;21117053;27;20276;-84
2024/01/07 22:37:36;;;;;;;0.33;0.33;;;;;;;;;;21129028;28;20199;-83
2024/01/07 22:47:38;;;;;;;0.60;0.37;;;;;;;;;;21140182;28;20286;-84
2024/01/07 22:57:39;;;;;;;0.60;0.40;;;;;;;;;;21125713;28;20203;-83
2024/01/07 23:07:43;;;;;;;0.70;0.40;;;;;;;;;;21132592;28;20261;-83
2024/01/07 23:17:44;;;;;;;0.40;0.40;;;;;;;;;;21107427;28;20680;-84
2024/01/07 23:27:46;;;;;;;0.30;0.30;;;;;;;;;;21129606;28;20249;-85
2024/01/07 23:37:48;;;;;;;0.40;0.40;;;;;;;;;;21143948;28;20246;-86
2024/01/07 23:47:50;;;;;;;0.70;0.60;;;;;;;;;;21156027;28;20239;-84
2024/01/07 23:57:52;;;;;;;0.50;0.40;;;;;;;;;;21109313;28;20630;-84
